Time;durP1;ratioP1;P1;durP2;ratioP2;P2;SDS_P1;SDS_P2;PMS_P1;PMS_P2;Temp;Humidity;BMP_temperature;BMP_pressure;BME280_temperature;BME280_humidity;BME280_pressure;Samples;Min_cycle;Max_cycle;Signal;HPM_P1;HPM_P2
2021/04/09 00:00:14;;;;;;;5.35;4.42;;;;;;;13.58;48.11;100206.50;1762671;80;21165;-72
2021/04/09 00:02:43;;;;;;;5.67;4.42;;;;;;;13.57;48.06;100208.83;1734922;80;22275;-72
2021/04/09 00:05:12;;;;;;;5.47;4.80;;;;;;;13.56;48.04;100206.67;1718586;80;21200;-71
2021/04/09 00:07:40;;;;;;;6.28;4.92;;;;;;;13.55;48.03;100210.33;1732553;81;21202;-71
2021/04/09 00:10:10;;;;;;;5.17;4.53;;;;;;;13.54;48.04;100210.02;1745162;80;21831;-70
2021/04/09 00:12:38;;;;;;;5.72;4.55;;;;;;;13.54;48.01;100209.17;1740222;80;21175;-71
2021/04/09 00:15:09;;;;;;;5.20;4.35;;;;;;;13.53;47.99;100213.69;1742658;79;21199;-71
2021/04/09 00:17:38;;;;;;;5.67;4.37;;;;;;;13.53;48.09;100223.03;1758085;80;21175;-71
2021/04/09 00:20:08;;;;;;;4.25;3.83;;;;;;;13.52;48.11;100217.86;1747830;80;21158;-70
2021/04/09 00:22:36;;;;;;;6.08;4.47;;;;;;;13.52;48.09;100223.20;1755507;80;21209;-74
2021/04/09 00:25:08;;;;;;;5.37;4.75;;;;;;;13.50;48.06;100228.73;1743018;80;21181;-72
2021/04/09 00:27:35;;;;;;;5.55;4.70;;;;;;;13.50;48.06;100227.40;1740255;80;21210;-72
2021/04/09 00:30:05;;;;;;;4.83;4.00;;;;;;;13.49;48.09;100229.73;1746837;79;21159;-71
2021/04/09 00:32:33;;;;;;;4.87;4.37;;;;;;;13.48;48.13;100234.75;1741409;79;21130;-71
2021/04/09 00:35:00;;;;;;;5.75;4.22;;;;;;;13.48;48.13;100234.75;1742844;79;21175;-72
2021/04/09 00:37:28;;;;;;;6.87;4.80;;;;;;;13.47;48.07;100242.93;1748316;79;21158;-72
2021/04/09 00:39:56;;;;;;;5.67;4.50;;;;;;;13.47;48.12;100248.27;1757495;80;21393;-71
2021/04/09 00:42:25;;;;;;;5.60;4.47;;;;;;;13.46;48.19;100255.45;1741254;81;21110;-70
2021/04/09 00:44:56;;;;;;;4.95;4.40;;;;;;;13.45;48.12;100252.44;1739083;79;21178;-72
2021/04/09 00:47:25;;;;;;;5.00;3.90;;;;;;;13.44;48.10;100256.09;1772156;77;21193;-72
2021/04/09 00:49:53;;;;;;;5.85;4.92;;;;;;;13.43;48.14;100255.78;1775009;77;21555;-72
2021/04/09 00:52:22;;;;;;;5.50;4.40;;;;;;;13.42;48.11;100263.45;1771505;79;21637;-70
2021/04/09 00:54:51;;;;;;;5.28;4.30;;;;;;;13.42;48.08;100260.78;1774823;77;21119;-71
2021/04/09 00:57:19;;;;;;;5.20;4.28;;;;;;;13.40;48.15;100256.63;1778336;79;21154;-72
2021/04/09 00:59:47;;;;;;;4.72;4.10;;;;;;;13.40;48.13;100259.30;1777874;77;22276;-71
2021/04/09 01:02:15;;;;;;;5.30;4.20;;;;;;;13.39;48.10;100253.66;1781228;78;21740;-71
2021/04/09 01:04:42;;;;;;;5.78;4.40;;;;;;;13.39;48.13;100261.15;1794803;78;21387;-71
2021/04/09 01:07:10;;;;;;;5.67;4.47;;;;;;;13.38;48.08;100262.13;1778270;77;21138;-72
2021/04/09 01:09:37;;;;;;;6.65;4.50;;;;;;;13.36;48.12;100256.14;1784137;77;21099;-72
2021/04/09 01:12:06;;;;;;;6.25;4.65;;;;;;;13.36;48.13;100262.81;1774845;77;21122;-71
2021/04/09 01:14:36;;;;;;;4.67;4.17;;;;;;;13.36;48.11;100265.48;1788323;79;21194;-72
2021/04/09 01:17:20;;;;;;;4.45;4.05;;;;;;;13.35;48.23;100272.66;1793234;79;21194;-71
2021/04/09 01:20:17;;;;;;;5.53;4.17;;;;;;;13.33;48.25;100272.52;1781174;79;21242;-71
2021/04/09 01:23:03;;;;;;;5.17;4.17;;;;;;;13.32;48.15;100274.84;1775301;79;21175;-71
2021/04/09 01:25:52;;;;;;;5.00;4.15;;;;;;;13.30;48.18;100274.19;1781390;78;21154;-71
2021/04/09 01:28:31;;;;;;;6.10;4.25;;;;;;;13.28;48.18;100280.17;1789540;79;21151;-72
2021/04/09 01:31:19;;;;;;;5.05;4.15;;;;;;;13.26;48.23;100284.84;1770883;77;21261;-71
2021/04/09 01:33:54;;;;;;;4.25;3.85;;;;;;;13.25;48.27;100287.17;1773117;79;21189;-71
2021/04/09 01:36:40;;;;;;;4.75;4.12;;;;;;;13.22;48.32;100292.36;1780350;77;21150;-71
2021/04/09 01:39:25;;;;;;;4.33;3.92;;;;;;;13.21;48.33;100289.86;1791927;78;21178;-73
2021/04/09 01:41:53;;;;;;;6.47;4.60;;;;;;;13.18;48.38;100291.86;1774862;79;21143;-72
2021/04/09 01:44:26;;;;;;;5.70;4.22;;;;;;;13.17;48.32;100298.70;1800876;77;21617;-72
2021/04/09 01:46:55;;;;;;;5.12;4.37;;;;;;;13.16;48.40;100295.20;1796850;78;21124;-72
2021/04/09 01:49:24;;;;;;;5.30;4.08;;;;;;;13.16;48.43;100295.72;1811566;78;21705;-72
2021/04/09 01:51:51;;;;;;;6.22;4.62;;;;;;;13.14;48.44;100301.22;1816965;77;21166;-71
2021/04/09 01:54:19;;;;;;;6.00;4.62;;;;;;;13.14;48.41;100302.55;1774600;78;21174;-72
2021/04/09 01:56:48;;;;;;;4.33;3.92;;;;;;;13.15;48.42;100310.05;1801913;78;21201;-72
2021/04/09 01:59:18;;;;;;;5.90;4.40;;;;;;;13.14;48.49;100318.55;1795871;78;21212;-72
2021/04/09 02:01:48;;;;;;;4.90;4.35;;;;;;;13.15;48.41;100322.05;1802450;78;21149;-72
2021/04/09 02:04:19;;;;;;;5.62;4.67;;;;;;;13.13;48.41;100320.91;1816490;78;21640;-72
2021/04/09 02:06:48;;;;;;;4.78;3.75;;;;;;;13.14;48.43;100326.56;1809776;77;21110;-72
2021/04/09 02:09:18;;;;;;;5.53;4.45;;;;;;;13.14;48.37;100329.73;1822593;78;21614;-72
2021/04/09 02:11:46;;;;;;;5.28;3.90;;;;;;;13.13;48.41;100327.58;1803726;78;21181;-71
2021/04/09 02:14:14;;;;;;;5.28;4.37;;;;;;;13.13;48.44;100337.39;1805381;78;21113;-71
2021/04/09 02:16:44;;;;;;;5.10;4.60;;;;;;;13.12;48.42;100341.91;1806859;77;21129;-73
2021/04/09 02:19:15;;;;;;;4.40;3.85;;;;;;;13.12;48.43;100342.41;1796701;77;21121;-72
2021/04/09 02:21:42;;;;;;;5.47;4.30;;;;;;;13.11;48.40;100339.41;1804477;77;21199;-72
2021/04/09 02:24:11;;;;;;;4.92;4.15;;;;;;;13.11;48.43;100336.73;1797616;78;21170;-72
2021/04/09 02:26:38;;;;;;;5.12;4.17;;;;;;;13.10;48.47;100338.58;1796941;77;21145;-72
2021/04/09 02:29:05;;;;;;;4.58;3.65;;;;;;;13.09;48.51;100334.23;1811348;78;21165;-71
2021/04/09 02:31:35;;;;;;;4.67;4.05;;;;;;;13.09;48.39;100337.41;1807883;77;21121;-71
2021/04/09 02:34:02;;;;;;;4.97;4.35;;;;;;;13.08;48.44;100332.58;1803153;77;21493;-72
2021/04/09 02:36:31;;;;;;;4.72;4.22;;;;;;;13.09;48.46;100334.73;1814159;78;21145;-71
2021/04/09 02:39:18;;;;;;;4.90;4.20;;;;;;;13.08;48.45;100342.42;1808939;77;21185;-72
2021/04/09 02:41:56;;;;;;;5.40;4.25;;;;;;;13.08;48.45;100341.09;1811437;77;21176;-71
2021/04/09 02:44:24;;;;;;;5.35;4.20;;;;;;;13.06;48.43;100345.26;1805821;77;21165;-71
2021/04/09 02:47:08;;;;;;;4.45;3.65;;;;;;;13.04;48.48;100348.59;1764855;78;21438;-71
2021/04/09 02:49:46;;;;;;;5.47;4.20;;;;;;;13.04;48.46;100350.41;1779728;78;21150;-69
2021/04/09 02:52:22;;;;;;;4.83;3.95;;;;;;;13.03;48.47;100353.59;1739478;80;21178;-68
2021/04/09 02:54:53;;;;;;;5.40;4.15;;;;;;;13.01;48.45;100358.26;1803325;79;21146;-71
2021/04/09 02:57:24;;;;;;;4.47;4.00;;;;;;;12.99;48.45;100361.09;1754993;80;21569;-69
2021/04/09 02:59:52;;;;;;;5.58;4.62;;;;;;;13.00;48.50;100365.94;1776143;79;21190;-69
2021/04/09 03:02:21;;;;;;;5.20;4.35;;;;;;;12.99;48.60;100368.27;1759662;80;21755;-69
2021/04/09 03:04:48;;;;;;;6.08;4.28;;;;;;;12.98;48.62;100377.28;1753764;80;21200;-70
2021/04/09 03:07:16;;;;;;;4.58;4.08;;;;;;;12.97;48.56;100380.43;1773425;78;21162;-70
2021/04/09 03:09:45;;;;;;;5.00;4.47;;;;;;;12.97;48.56;100380.43;1764712;78;21133;-70
2021/04/09 03:12:22;;;;;;;5.62;4.40;;;;;;;12.97;48.54;100383.60;1748101;80;21192;-70
2021/04/09 03:14:51;;;;;;;4.85;4.15;;;;;;;12.96;48.60;100391.26;1780902;80;21185;-69
2021/04/09 03:17:29;;;;;;;5.25;4.28;;;;;;;12.94;48.60;100392.78;1778333;80;21120;-71
2021/04/09 03:19:56;;;;;;;4.25;3.85;;;;;;;12.94;48.57;100394.11;1778055;78;21638;-69
2021/04/09 03:22:25;;;;;;;4.47;3.98;;;;;;;12.94;48.58;100399.92;1765330;78;21148;-70
2021/04/09 03:24:52;;;;;;;5.90;4.37;;;;;;;12.94;48.59;100407.92;1770372;78;21240;-70
2021/04/09 03:27:20;;;;;;;4.80;4.37;;;;;;;12.93;48.59;100406.28;1772159;78;21628;-70
2021/04/09 03:29:48;;;;;;;4.95;3.85;;;;;;;12.92;48.63;100411.27;1760732;78;21189;-68
2021/04/09 03:32:20;;;;;;;4.70;4.15;;;;;;;12.92;48.62;100410.78;1773076;80;21621;-70
2021/04/09 03:34:49;;;;;;;4.80;4.28;;;;;;;12.91;48.65;100411.77;1766669;78;21137;-70
2021/04/09 03:37:16;;;;;;;5.42;4.72;;;;;;;12.92;48.66;100417.93;1769318;80;21367;-70
2021/04/09 03:39:45;;;;;;;5.67;4.97;;;;;;;12.92;48.64;100425.93;1758069;78;21215;-70
2021/04/09 03:42:13;;;;;;;5.30;4.53;;;;;;;12.91;48.59;100433.11;1767306;80;21136;-70
2021/04/09 03:44:40;;;;;;;5.22;4.67;;;;;;;12.91;48.62;100436.28;1757406;78;21161;-70
2021/04/09 03:47:08;;;;;;;5.58;4.45;;;;;;;12.91;48.67;100436.28;1736419;80;21162;-71
2021/04/09 03:49:36;;;;;;;5.28;4.60;;;;;;;12.91;48.67;100443.77;1742039;80;21375;-70
2021/04/09 03:52:04;;;;;;;5.33;4.25;;;;;;;12.91;48.70;100450.44;1732040;81;21152;-72
2021/04/09 03:54:31;;;;;;;6.53;4.33;;;;;;;12.91;48.70;100451.77;1737050;80;21130;-71
2021/04/09 03:57:00;;;;;;;5.97;4.58;;;;;;;12.91;48.72;100454.44;1774909;77;21197;-70
2021/04/09 03:59:28;;;;;;;5.60;4.70;;;;;;;12.91;48.79;100455.77;1774370;79;21445;-72
2021/04/09 04:01:55;;;;;;;4.87;4.37;;;;;;;12.91;48.83;100454.44;1771915;77;21187;-70
2021/04/09 04:04:24;;;;;;;6.12;4.45;;;;;;;12.91;48.75;100459.77;1771164;77;21140;-69
2021/04/09 04:06:52;;;;;;;4.95;4.08;;;;;;;12.92;48.85;100461.45;1787357;77;21143;-72
2021/04/09 04:09:19;;;;;;;6.33;5.15;;;;;;;12.93;48.79;100463.61;1783056;79;21166;-70
2021/04/09 04:11:47;;;;;;;5.22;4.40;;;;;;;12.92;48.82;100474.79;1789504;79;21169;-70
2021/04/09 04:14:14;;;;;;;5.00;4.40;;;;;;;12.93;48.82;100474.28;1784909;78;21623;-70
2021/04/09 04:16:42;;;;;;;5.10;4.42;;;;;;;12.93;48.82;100483.11;1791600;78;21154;-70
2021/04/09 04:19:13;;;;;;;5.17;4.25;;;;;;;12.94;48.77;100486.59;1770965;78;21158;-69
2021/04/09 04:21:40;;;;;;;4.80;4.40;;;;;;;12.93;48.83;100483.61;1780904;79;21191;-71
2021/04/09 04:24:08;;;;;;;5.58;4.85;;;;;;;12.94;48.85;100486.12;1791342;78;21099;-71
2021/04/09 04:26:35;;;;;;;5.33;4.80;;;;;;;12.96;48.80;100485.94;1779719;79;21437;-70
2021/04/09 04:29:03;;;;;;;5.80;4.67;;;;;;;12.96;48.76;100485.45;1783220;78;21162;-69
2021/04/09 04:31:31;;;;;;;4.58;4.12;;;;;;;12.97;48.84;100488.95;1771248;77;21161;-71
2021/04/09 04:33:58;;;;;;;5.65;4.87;;;;;;;12.97;48.83;100495.62;1775218;79;21215;-71
2021/04/09 04:36:26;;;;;;;5.33;4.40;;;;;;;12.97;48.77;100494.28;1792993;77;22052;-72
2021/04/09 04:38:53;;;;;;;4.80;4.20;;;;;;;12.98;48.88;100489.30;1777275;79;21206;-70
2021/04/09 04:41:20;;;;;;;5.50;4.28;;;;;;;12.98;48.86;100499.46;1790161;77;21611;-72
2021/04/09 04:43:47;;;;;;;5.97;4.45;;;;;;;12.98;48.83;100502.13;1776287;77;21159;-71
2021/04/09 04:46:15;;;;;;;4.80;4.30;;;;;;;12.99;48.88;100510.95;1788319;78;21554;-71
2021/04/09 04:48:42;;;;;;;5.35;4.85;;;;;;;13.00;48.89;100511.30;1791141;77;21169;-71
2021/04/09 04:51:10;;;;;;;5.35;4.67;;;;;;;13.01;48.88;100516.95;1806558;78;21198;-72
2021/04/09 04:53:37;;;;;;;5.83;4.42;;;;;;;13.02;48.80;100520.45;1798786;78;21137;-71
2021/04/09 04:56:05;;;;;;;5.45;4.92;;;;;;;13.03;48.76;100525.63;1802632;77;21633;-72
2021/04/09 04:58:33;;;;;;;5.70;5.00;;;;;;;13.03;48.66;100526.13;1799571;78;21106;-74
2021/04/09 05:01:02;;;;;;;5.28;4.78;;;;;;;13.05;48.58;100530.30;1803621;77;21786;-74
2021/04/09 05:03:29;;;;;;;5.10;4.30;;;;;;;13.04;48.48;100533.97;1800719;77;23482;-72
2021/04/09 05:05:57;;;;;;;5.25;4.75;;;;;;;13.05;48.48;100532.95;1797118;77;21205;-72
2021/04/09 05:08:24;;;;;;;4.80;4.30;;;;;;;13.06;48.57;100534.64;1800098;77;21146;-72
2021/04/09 05:10:52;;;;;;;5.30;4.65;;;;;;;13.08;48.53;100539.31;1795886;78;21152;-73
2021/04/09 05:13:19;;;;;;;5.45;4.58;;;;;;;13.10;48.51;100540.48;1802161;77;21677;-74
2021/04/09 05:15:46;;;;;;;5.08;4.42;;;;;;;13.11;48.52;100538.96;1802362;77;21201;-72
2021/04/09 05:18:14;;;;;;;5.45;4.95;;;;;;;13.13;48.58;100543.66;1799611;78;21162;-71
2021/04/09 05:20:41;;;;;;;5.33;4.75;;;;;;;13.16;48.34;100549.16;1797294;78;21562;-71
2021/04/09 05:23:09;;;;;;;5.00;4.45;;;;;;;13.17;48.33;100556.14;1792077;78;21138;-74
2021/04/09 05:25:37;;;;;;;4.97;4.47;;;;;;;13.18;48.30;100551.98;1798879;78;21224;-72
2021/04/09 05:28:05;;;;;;;4.83;4.22;;;;;;;13.21;48.32;100551.31;1797755;77;21158;-72
2021/04/09 05:30:32;;;;;;;7.03;5.03;;;;;;;13.23;48.17;100550.65;1791670;78;21193;-72
2021/04/09 05:32:59;;;;;;;5.72;4.83;;;;;;;13.25;48.14;100552.66;1797201;77;21562;-73
2021/04/09 05:35:26;;;;;;;5.00;4.37;;;;;;;13.26;48.13;100557.00;1801002;78;21150;-72
2021/04/09 05:37:53;;;;;;;6.08;4.70;;;;;;;13.28;48.16;100557.67;1801195;78;21133;-73
2021/04/09 05:40:22;;;;;;;5.75;5.00;;;;;;;13.29;48.03;100564.66;1788039;77;21609;-73
2021/04/09 05:42:57;;;;;;;5.53;4.35;;;;;;;13.30;48.12;100568.53;1789269;77;21161;-74
2021/04/09 05:45:27;;;;;;;6.20;4.87;;;;;;;13.32;48.03;100571.87;1802929;78;21155;-73
2021/04/09 05:47:58;;;;;;;6.60;5.15;;;;;;;13.34;47.95;100569.04;1788340;79;21173;-74
2021/04/09 05:50:23;;;;;;;6.00;4.92;;;;;;;13.34;47.94;100571.20;1779861;78;21131;-72
2021/04/09 05:52:50;;;;;;;6.05;4.50;;;;;;;13.36;47.92;100577.20;1715101;80;21261;-72
2021/04/09 05:55:18;;;;;;;5.60;5.03;;;;;;;13.39;47.85;100574.72;1737867;79;21441;-73
2021/04/09 05:57:45;;;;;;;4.90;4.40;;;;;;;13.40;47.83;100581.72;1728627;79;21139;-72
2021/04/09 06:00:14;;;;;;;5.65;5.00;;;;;;;13.42;47.90;100573.55;1746873;79;21214;-72
2021/04/09 06:02:42;;;;;;;5.83;5.15;;;;;;;13.43;47.82;100577.91;1735350;81;21199;-72
2021/04/09 06:05:10;;;;;;;5.03;4.30;;;;;;;13.44;47.73;100581.71;1738521;79;22161;-73
2021/04/09 06:07:38;;;;;;;5.53;4.65;;;;;;;13.46;47.70;100590.89;1770504;77;21314;-72
2021/04/09 06:10:06;;;;;;;5.58;4.75;;;;;;;13.46;47.70;100595.76;1782460;77;21114;-71
2021/04/09 06:12:35;;;;;;;5.85;5.25;;;;;;;13.48;47.76;100596.42;1781570;77;21143;-73
2021/04/09 06:15:07;;;;;;;5.22;4.72;;;;;;;13.50;47.67;100603.77;1799914;76;21103;-73
2021/04/09 06:17:35;;;;;;;4.87;4.37;;;;;;;13.51;47.61;100600.08;1791213;78;22888;-72
2021/04/09 06:20:05;;;;;;;5.45;4.62;;;;;;;13.52;47.59;100602.23;1770567;77;21114;-72
2021/04/09 06:22:32;;;;;;;5.20;4.53;;;;;;;13.54;47.67;100601.56;1772074;79;21163;-73
2021/04/09 06:24:59;;;;;;;6.33;5.55;;;;;;;13.55;47.61;100601.41;1784475;77;21194;-75
2021/04/09 06:27:27;;;;;;;5.92;5.33;;;;;;;13.57;47.57;100603.41;1785902;79;21551;-73
2021/04/09 06:29:54;;;;;;;6.33;5.42;;;;;;;13.59;47.52;100600.58;1777708;79;21196;-73
2021/04/09 06:32:21;;;;;;;5.75;4.90;;;;;;;13.61;47.54;100607.92;1788585;79;22058;-74
2021/04/09 06:34:50;;;;;;;5.65;5.03;;;;;;;13.64;47.51;100605.44;1792851;79;21163;-70
2021/04/09 06:37:19;;;;;;;5.80;5.03;;;;;;;13.66;47.45;100608.27;1776207;77;21213;-71
2021/04/09 06:39:46;;;;;;;6.65;5.87;;;;;;;13.69;47.39;100606.58;1778426;77;21675;-72
2021/04/09 06:42:19;;;;;;;7.92;5.80;;;;;;;13.72;47.36;100606.77;1771062;77;21264;-72
2021/04/09 06:44:47;;;;;;;;;;;;;;;13.75;47.31;100611.75;1777975;78;21122;-70
2021/04/09 06:47:17;;;;;;;6.30;5.35;;;;;;;13.78;47.30;100606.59;1784471;77;20290;-71
2021/04/09 06:49:45;;;;;;;5.65;5.15;;;;;;;13.73;47.40;100609.75;1776689;79;21146;-71
2021/04/09 06:52:13;;;;;;;5.90;5.05;;;;;;;13.77;47.38;100615.08;1784457;79;21190;-73
2021/04/09 06:54:41;;;;;;;6.00;4.95;;;;;;;13.80;47.50;100617.44;1782713;78;21334;-71
2021/04/09 06:57:12;;;;;;;6.55;5.22;;;;;;;13.85;47.48;100616.44;1798903;79;21135;-71
2021/04/09 06:59:43;;;;;;;5.80;5.05;;;;;;;13.88;47.60;100624.09;1788574;77;21123;-70
2021/04/09 07:02:14;;;;;;;6.22;5.47;;;;;;;13.92;47.59;100621.93;1779589;77;21229;-71
2021/04/09 07:04:45;;;;;;;5.80;5.03;;;;;;;13.96;47.58;100620.58;1776458;77;21158;-72
2021/04/09 07:07:15;;;;;;;6.72;5.50;;;;;;;13.99;47.59;100628.78;1778213;79;21192;-71
2021/04/09 07:09:44;;;;;;;6.03;5.12;;;;;;;14.01;47.61;100626.27;1791286;79;21166;-71
2021/04/09 07:12:28;;;;;;;5.87;5.10;;;;;;;14.05;47.57;100622.76;1789559;78;21154;-71
2021/04/09 07:15:17;;;;;;;6.95;6.20;;;;;;;14.09;47.57;100618.74;1795192;77;21102;-71
2021/04/09 07:17:49;;;;;;;6.20;5.60;;;;;;;14.11;47.59;100623.41;1789265;77;21154;-71
2021/04/09 07:20:23;;;;;;;5.63;5.13;;;;;;;14.13;47.71;100628.91;1791656;79;21381;-71
2021/04/09 07:22:53;;;;;;;5.37;4.87;;;;;;;14.18;47.69;100631.57;1796120;79;21193;-71
2021/04/09 07:25:25;;;;;;;5.37;4.78;;;;;;;14.21;47.70;100633.91;1796761;77;21159;-70
2021/04/09 07:28:17;;;;;;;5.87;5.28;;;;;;;14.24;47.67;100625.57;1777130;79;21162;-71
2021/04/09 07:30:51;;;;;;;6.72;5.20;;;;;;;14.28;47.61;100632.23;1794392;77;21220;-70
2021/04/09 07:33:22;;;;;;;6.17;4.83;;;;;;;14.30;47.64;100632.39;1787291;79;21191;-70
2021/04/09 07:35:58;;;;;;;6.00;5.25;;;;;;;14.33;47.63;100631.20;1798104;77;21625;-70
2021/04/09 07:38:35;;;;;;;5.53;4.45;;;;;;;14.37;47.68;100635.23;1813563;77;21193;-69
2021/04/09 07:41:09;;;;;;;5.72;5.05;;;;;;;14.40;47.73;100636.72;1796497;78;21149;-70
2021/04/09 07:43:43;;;;;;;5.45;4.90;;;;;;;14.43;47.66;100630.53;1795991;77;21218;-71
2021/04/09 07:46:26;;;;;;;7.60;5.75;;;;;;;14.47;47.62;100635.03;1793985;78;21364;-69
2021/04/09 07:49:02;;;;;;;5.85;4.47;;;;;;;14.49;47.57;100639.20;1785968;79;21238;-73
2021/04/09 07:51:29;;;;;;;6.10;4.72;;;;;;;14.53;47.52;100642.36;1778882;78;21102;-71
2021/04/09 07:54:10;;;;;;;5.25;4.75;;;;;;;14.57;47.53;100645.05;1787648;77;21617;-71
2021/04/09 07:56:49;;;;;;;5.55;4.35;;;;;;;14.60;47.52;100642.02;1774804;79;21642;-73
2021/04/09 07:59:39;;;;;;;4.75;4.25;;;;;;;14.64;47.57;100635.34;1786681;78;21206;-74
2021/04/09 08:02:08;;;;;;;4.55;4.15;;;;;;;14.67;47.61;100638.16;1784302;78;21201;-74
2021/04/09 08:04:39;;;;;;;5.40;4.83;;;;;;;14.70;47.58;100637.32;1775326;78;21178;-74
2021/04/09 08:07:10;;;;;;;5.50;4.85;;;;;;;14.73;47.68;100637.47;1772094;77;21130;-74
2021/04/09 08:09:49;;;;;;;5.67;4.78;;;;;;;14.76;47.65;100642.48;1791345;79;21124;-75
2021/04/09 08:12:30;;;;;;;4.65;4.20;;;;;;;14.79;47.62;100640.78;1772172;77;21193;-76
2021/04/09 08:15:22;;;;;;;4.92;4.42;;;;;;;14.82;47.66;100633.76;1785417;77;21182;-75
2021/04/09 08:18:08;;;;;;;4.60;4.15;;;;;;;14.87;47.53;100634.08;1777503;77;21182;-75
2021/04/09 08:20:42;;;;;;;4.42;4.00;;;;;;;14.91;47.82;100639.89;1772356;78;21126;-75
2021/04/09 08:23:15;;;;;;;5.17;4.42;;;;;;;14.95;47.93;100635.88;1775669;79;21619;-74
2021/04/09 08:25:43;;;;;;;;;;;;;;;14.99;47.96;100636.34;1775926;77;21194;-74
2021/04/09 08:28:11;;;;;;;5.40;3.70;;;;;;;15.02;47.77;100636.83;1777934;78;20713;-72
2021/04/09 08:30:39;;;;;;;4.60;4.12;;;;;;;14.98;47.84;100640.86;1790590;78;21142;-73
2021/04/09 08:33:07;;;;;;;5.33;4.05;;;;;;;15.01;47.67;100636.52;1794644;78;21594;-74
2021/04/09 08:35:34;;;;;;;4.53;3.92;;;;;;;15.06;47.66;100645.34;1782311;79;21170;-72
2021/04/09 08:38:03;;;;;;;4.53;3.85;;;;;;;15.09;47.67;100641.81;1777666;79;21243;-73
2021/04/09 08:40:31;;;;;;;4.25;3.65;;;;;;;15.12;47.81;100649.50;1773205;77;21582;-70
2021/04/09 08:42:59;;;;;;;4.42;4.03;;;;;;;15.16;47.66;100648.62;1746998;79;21184;-72
2021/04/09 08:45:28;;;;;;;3.98;3.60;;;;;;;15.20;47.59;100650.45;1742872;80;21650;-70
2021/04/09 08:47:56;;;;;;;4.03;3.60;;;;;;;15.24;47.50;100647.74;1798041;77;21374;-70
2021/04/09 08:50:24;;;;;;;4.25;3.62;;;;;;;15.26;47.30;100647.92;1795431;77;21369;-69
2021/04/09 08:52:51;;;;;;;4.03;3.60;;;;;;;15.29;47.30;100644.86;1808136;78;21649;-72
2021/04/09 08:55:19;;;;;;;4.22;3.83;;;;;;;15.33;47.15;100648.02;1798842;78;21130;-72
2021/04/09 08:57:47;;;;;;;4.45;4.05;;;;;;;15.38;47.10;100648.85;1786011;78;21204;-72
2021/04/09 09:00:20;;;;;;;3.77;3.37;;;;;;;15.41;47.15;100649.82;1791806;78;21161;-74
2021/04/09 09:02:54;;;;;;;4.37;3.80;;;;;;;15.44;46.92;100644.95;1798925;78;21198;-73
2021/04/09 09:05:27;;;;;;;3.75;3.37;;;;;;;15.50;46.72;100644.74;1803035;78;21181;-73
2021/04/09 09:07:59;;;;;;;3.62;3.33;;;;;;;15.56;46.52;100645.88;1795781;77;21186;-72
2021/04/09 09:10:37;;;;;;;3.90;3.50;;;;;;;15.60;46.64;100637.30;1802707;77;21134;-73
2021/04/09 09:13:15;;;;;;;3.62;3.02;;;;;;;15.66;46.66;100647.80;1789690;78;21186;-72
2021/04/09 09:15:57;;;;;;;3.10;2.80;;;;;;;15.68;46.70;100643.09;1802571;77;21634;-74
2021/04/09 09:18:33;;;;;;;3.37;3.08;;;;;;;15.72;46.63;100648.41;1800849;78;21173;-73
2021/04/09 09:21:18;;;;;;;3.20;2.90;;;;;;;15.76;46.72;100648.44;1797599;78;21592;-73
2021/04/09 09:24:03;;;;;;;3.70;3.25;;;;;;;15.79;46.46;100649.41;1808335;78;21606;-73
2021/04/09 09:26:41;;;;;;;3.50;3.17;;;;;;;15.82;46.41;100651.73;1804957;78;21585;-73
2021/04/09 09:29:26;;;;;;;3.90;3.25;;;;;;;15.85;46.34;100654.03;1795054;77;21383;-75
2021/04/09 09:31:59;;;;;;;;;;;;;;;15.87;46.48;100656.54;1803687;77;21109;-74
2021/04/09 09:34:33;;;;;;;3.58;3.27;;;;;;;15.89;46.55;100651.31;1818073;77;20254;-73
2021/04/09 09:37:15;;;;;;;3.80;3.40;;;;;;;15.84;46.56;100656.41;1811098;77;21141;-72
2021/04/09 09:40:03;;;;;;;3.12;2.80;;;;;;;15.87;46.47;100652.52;1809600;78;21198;-73
2021/04/09 09:42:34;;;;;;;4.12;3.20;;;;;;;15.89;46.44;100656.67;1787952;78;21191;-73
2021/04/09 09:45:06;;;;;;;3.72;3.30;;;;;;;15.91;46.32;100651.14;1791725;77;21105;-72
2021/04/09 09:50:23;;;;;;;3.47;3.08;;;;;;;16.08;45.53;100629.87;1836162;77;28730;-72
2021/04/09 09:53:00;;;;;;;3.02;2.70;;;;;;;16.12;45.27;100633.03;1813895;77;21619;-72
2021/04/09 09:55:40;;;;;;;3.02;2.70;;;;;;;16.21;45.28;100636.48;1813735;77;21191;-73
2021/04/09 09:58:24;;;;;;;2.80;2.50;;;;;;;16.29;45.41;100643.09;1814867;77;21207;-73
2021/04/09 10:00:55;;;;;;;4.97;3.00;;;;;;;16.38;45.77;100637.97;1814693;77;21147;-75
2021/04/09 10:03:30;;;;;;;2.27;2.08;;;;;;;16.46;45.64;100645.92;1814394;78;21184;-74
2021/04/09 10:06:05;;;;;;;3.50;2.75;;;;;;;16.55;45.64;100636.43;1803666;78;21162;-72
2021/04/09 10:08:36;;;;;;;3.33;2.60;;;;;;;16.61;45.85;100641.91;1808854;78;21188;-70
2021/04/09 10:11:19;;;;;;;3.25;2.60;;;;;;;16.69;45.88;100635.61;1797540;78;21043;-75
2021/04/09 10:13:50;;;;;;;2.92;2.58;;;;;;;16.76;45.87;100631.66;1754622;80;21191;-75
2021/04/09 10:16:25;;;;;;;3.98;2.98;;;;;;;16.82;45.88;100637.64;1776397;78;21595;-73
2021/04/09 10:18:58;;;;;;;3.33;2.52;;;;;;;16.88;45.98;100640.42;1775492;78;21248;-74
2021/04/09 10:21:31;;;;;;;2.50;2.30;;;;;;;16.92;46.00;100635.52;1774575;79;21246;-73
2021/04/09 10:24:12;;;;;;;2.95;2.27;;;;;;;16.96;45.89;100639.48;1806592;77;21175;-73
2021/04/09 10:26:55;;;;;;;2.80;2.50;;;;;;;17.01;45.73;100638.39;1818421;77;22122;-72
2021/04/09 10:29:33;;;;;;;2.65;2.45;;;;;;;17.06;45.64;100651.27;1808259;77;21117;-72
2021/04/09 10:32:01;;;;;;;3.02;2.55;;;;;;;17.15;45.85;100642.58;1799208;78;22436;-74
2021/04/09 10:34:31;;;;;;;3.62;2.77;;;;;;;17.26;45.90;100649.63;1791905;78;21210;-74
2021/04/09 10:36:58;;;;;;;3.95;2.30;;;;;;;17.39;45.96;100647.60;1802831;78;21169;-73
2021/04/09 10:39:27;;;;;;;3.47;2.90;;;;;;;17.54;45.96;100648.05;1802380;78;21165;-73
2021/04/09 10:42:01;;;;;;;3.35;2.67;;;;;;;17.69;45.47;100640.27;1797820;78;21862;-72
2021/04/09 10:44:29;;;;;;;2.95;2.45;;;;;;;17.86;45.08;100641.34;1802378;78;21122;-73
2021/04/09 10:47:02;;;;;;;2.98;2.50;;;;;;;18.03;44.89;100635.19;1808937;77;22415;-72
2021/04/09 10:49:33;;;;;;;2.80;2.55;;;;;;;18.18;44.40;100631.88;1817390;77;21136;-73
2021/04/09 10:52:09;;;;;;;3.27;2.77;;;;;;;18.34;44.62;100627.23;1772735;78;21158;-73
2021/04/09 10:54:39;;;;;;;2.83;2.37;;;;;;;18.48;44.76;100622.23;1800071;77;21139;-73
2021/04/09 10:57:12;;;;;;;3.27;2.58;;;;;;;18.59;44.75;100618.98;1811773;78;21167;-73
2021/04/09 10:59:44;;;;;;;2.85;2.55;;;;;;;18.67;44.52;100621.49;1771704;80;21216;-73
2021/04/09 11:02:21;;;;;;;3.00;2.37;;;;;;;18.81;44.42;100629.66;1807122;77;21159;-73
2021/04/09 11:04:53;;;;;;;3.02;2.60;;;;;;;18.93;44.43;100627.22;1807405;77;21132;-73
2021/04/09 11:07:45;;;;;;;2.90;2.40;;;;;;;19.16;44.17;100624.19;1761183;79;23350;-72
2021/04/09 11:10:32;;;;;;;3.15;2.40;;;;;;;19.26;44.00;100624.66;1718741;82;21426;-72
2021/04/09 11:13:00;;;;;;;2.62;2.12;;;;;;;19.43;43.93;100619.20;1746442;80;21251;-74
2021/04/09 11:15:43;;;;;;;2.90;2.22;;;;;;;19.59;43.81;100622.53;1753853;81;21611;-73
2021/04/09 11:18:13;;;;;;;2.98;2.50;;;;;;;19.73;43.74;100628.27;1757004;81;21166;-72
2021/04/09 11:20:45;;;;;;;3.12;2.17;;;;;;;19.91;43.54;100616.84;1741585;81;21206;-72
2021/04/09 11:23:15;;;;;;;2.58;2.37;;;;;;;20.12;43.41;100609.58;1750997;81;21606;-72
2021/04/09 11:25:46;;;;;;;2.25;2.02;;;;;;;20.37;43.34;100611.91;1750810;81;21024;-72
2021/04/09 11:28:29;;;;;;;2.60;2.40;;;;;;;20.55;43.22;100610.40;1756820;81;21210;-70
2021/04/09 11:31:05;;;;;;;2.30;2.05;;;;;;;20.70;42.97;100610.18;1754107;81;21163;-71
2021/04/09 11:33:34;;;;;;;2.08;1.87;;;;;;;20.78;42.77;100604.03;1741329;81;21178;-71
2021/04/09 11:36:22;;;;;;;3.72;2.33;;;;;;;20.80;42.75;100603.80;1733023;81;21134;-71
2021/04/09 11:39:08;;;;;;;2.85;2.25;;;;;;;20.85;42.72;100610.74;1737085;82;22258;-70
2021/04/09 11:41:36;;;;;;;2.22;2.02;;;;;;;20.88;42.76;100602.72;1719290;82;21197;-70
2021/04/09 11:44:36;;;;;;;2.98;2.20;;;;;;;20.94;42.44;100605.41;1730856;82;21118;-71
2021/04/09 11:47:27;;;;;;;2.20;1.90;;;;;;;20.97;42.58;100604.14;1737000;82;21166;-71
2021/04/09 11:50:20;;;;;;;1.95;1.75;;;;;;;20.94;42.53;100604.06;1715786;83;21658;-72